createdAt,value
2022-11-15T00:00:22.674Z,82.95
2022-11-15T00:02:53.204Z,83.53
2022-11-15T00:05:23.596Z,73.78
2022-11-15T00:07:56.165Z,84.85
2022-11-15T00:10:26.736Z,78.20
2022-11-15T00:12:57.377Z,77.00
2022-11-15T00:17:57.616Z,76.82
2022-11-15T00:20:28.062Z,72.50
2022-11-15T00:22:58.458Z,69.03
2022-11-15T00:25:30.343Z,70.25
2022-11-15T00:28:01.591Z,68.38
2022-11-15T00:30:32.357Z,70.40
2022-11-15T00:33:07.092Z,70.38
2022-11-15T00:35:38.841Z,71.78
2022-11-15T00:38:09.121Z,72.47
2022-11-15T00:40:40.620Z,70.18
2022-11-15T00:43:11.004Z,73.55
2022-11-15T00:45:41.687Z,72.32
2022-11-15T00:50:43.062Z,72.90
2022-11-15T00:53:13.678Z,74.40
2022-11-15T00:58:14.060Z,75.25
2022-11-15T01:00:44.616Z,80.07
2022-11-15T01:03:15.141Z,78.70
2022-11-15T01:05:45.599Z,82.22
2022-11-15T01:08:19.180Z,79.80
2022-11-15T01:10:49.716Z,77.28
2022-11-15T01:13:20.313Z,75.15
2022-11-15T01:15:50.701Z,72.28
2022-11-15T01:18:21.264Z,75.47
2022-11-15T01:20:51.670Z,73.85
2022-11-15T01:23:22.688Z,73.47
2022-11-15T01:25:53.147Z,70.97
2022-11-15T01:28:23.761Z,70.35
2022-11-15T01:33:23.986Z,69.43
2022-11-15T01:35:54.519Z,69.20
2022-11-15T01:38:25.694Z,69.28
2022-11-15T01:40:56.109Z,67.55
2022-11-15T01:43:31.849Z,72.57
2022-11-15T01:46:19.385Z,76.93
2022-11-15T01:48:50.093Z,74.38
2022-11-15T01:51:22.988Z,74.40
2022-11-15T01:53:57.952Z,79.72
2022-11-15T01:56:33.023Z,79.80
2022-11-15T01:59:07.997Z,87.55
2022-11-15T02:01:38.981Z,86.35
2022-11-15T02:04:17.548Z,88.07
2022-11-15T02:06:50.587Z,82.90
2022-11-15T02:09:21.700Z,78.85
2022-11-15T02:11:53.845Z,82.70
2022-11-15T02:14:25.113Z,78.80
2022-11-15T02:17:34.260Z,79.97
2022-11-15T02:20:43.573Z,80.28
2022-11-15T02:23:43.179Z,74.25
2022-11-15T02:26:45.481Z,79.07
2022-11-15T02:29:41.194Z,74.28
2022-11-15T02:32:27.295Z,75.40
2022-11-15T02:35:34.226Z,72.55
2022-11-15T02:38:16.489Z,73.97
2022-11-15T02:41:10.518Z,69.78
2022-11-15T02:44:04.971Z,71.18
2022-11-15T02:47:03.920Z,75.07
2022-11-15T02:49:38.414Z,73.47
2022-11-15T02:52:08.897Z,74.68
2022-11-15T02:57:16.164Z,73.95
2022-11-15T03:00:12.945Z,87.88
2022-11-15T03:03:15.889Z,88.25
2022-11-15T03:06:07.884Z,90.68
2022-11-15T03:09:00.767Z,88.95
2022-11-15T03:11:33.287Z,83.38
2022-11-15T03:14:26.769Z,82.55
2022-11-15T03:17:26.438Z,81.95
2022-11-15T03:20:00.748Z,84.80
2022-11-15T03:22:36.714Z,82.25
2022-11-15T03:25:10.111Z,80.63
2022-11-15T03:27:44.325Z,80.82
2022-11-15T03:30:16.002Z,78.18
2022-11-15T03:32:55.143Z,78.07
2022-11-15T03:35:27.814Z,77.65
2022-11-15T03:38:07.825Z,76.68
2022-11-15T03:40:43.452Z,75.35
2022-11-15T03:43:39.538Z,81.05
2022-11-15T03:46:19.366Z,83.25
2022-11-15T03:48:57.658Z,83.78
2022-11-15T03:51:27.709Z,87.68
2022-11-15T03:53:57.679Z,83.03
2022-11-15T03:56:27.626Z,85.18
2022-11-15T03:58:57.657Z,85.63
2022-11-15T04:01:27.868Z,88.57
2022-11-15T04:03:57.910Z,92.28
2022-11-15T04:06:27.873Z,92.50
2022-11-15T04:08:57.836Z,83.93
2022-11-15T04:11:27.867Z,91.15
2022-11-15T04:13:57.707Z,95.15
2022-11-15T04:16:27.601Z,92.68
2022-11-15T04:19:09.885Z,92.70
2022-11-15T04:21:58.937Z,94.85
2022-11-15T04:24:28.880Z,102.53
2022-11-15T04:26:58.828Z,91.63
2022-11-15T04:29:39.541Z,84.28
2022-11-15T04:32:10.748Z,72.65
2022-11-15T04:34:41.209Z,73.10
2022-11-15T04:37:18.735Z,82.32
2022-11-15T04:39:48.733Z,88.10
2022-11-15T04:42:18.667Z,87.75
2022-11-15T04:44:49.167Z,93.45
2022-11-15T04:47:19.096Z,92.03
2022-11-15T04:49:49.015Z,95.53
2022-11-15T04:52:19.235Z,89.97
2022-11-15T04:54:49.315Z,93.93
2022-11-15T04:57:19.579Z,81.55
2022-11-15T04:59:49.735Z,71.20
2022-11-15T05:02:19.763Z,71.10
2022-11-15T05:04:50.229Z,64.07
2022-11-15T05:07:20.201Z,60.92
2022-11-15T05:09:50.216Z,58.58
2022-11-15T05:12:20.257Z,61.90
2022-11-15T05:14:50.162Z,65.72
2022-11-15T05:17:20.066Z,62.65
2022-11-15T05:19:50.778Z,63.83
2022-11-15T05:22:21.306Z,63.92
2022-11-15T05:24:51.288Z,57.90
2022-11-15T05:27:21.527Z,59.95
2022-11-15T05:32:20.972Z,60.22
2022-11-15T05:37:20.867Z,55.13
2022-11-15T05:39:50.885Z,56.78
2022-11-15T05:42:22.357Z,56.97
2022-11-15T05:44:53.473Z,55.05
2022-11-15T05:47:27.720Z,58.08
2022-11-15T05:49:58.359Z,62.83
2022-11-15T05:52:33.812Z,65.80
2022-11-15T05:55:04.737Z,67.47
2022-11-15T05:57:34.918Z,68.50
2022-11-15T06:02:35.726Z,61.47
2022-11-15T06:05:06.035Z,59.65
2022-11-15T06:10:05.692Z,52.53
2022-11-15T06:12:35.714Z,50.28
2022-11-15T06:15:05.808Z,53.65
2022-11-15T06:17:35.781Z,59.55
2022-11-15T06:20:06.873Z,60.47
2022-11-15T06:22:36.826Z,65.22
2022-11-15T06:25:07.151Z,59.08
2022-11-15T06:27:37.176Z,58.85
2022-11-15T06:30:07.477Z,55.53
2022-11-15T06:32:37.400Z,56.60
2022-11-15T06:35:07.845Z,49.38
2022-11-15T06:37:37.710Z,48.33
2022-11-15T06:40:08.182Z,48.85
2022-11-15T06:42:40.527Z,49.90
2022-11-15T06:45:10.897Z,50.08
2022-11-15T06:47:49.524Z,45.17
2022-11-15T06:50:19.540Z,45.75
2022-11-15T06:52:49.970Z,45.60
2022-11-15T06:55:20.093Z,47.55
2022-11-15T07:00:23.214Z,46.72
2022-11-15T07:02:53.292Z,45.38
2022-11-15T07:07:57.562Z,43.65
2022-11-15T07:10:28.679Z,52.92
2022-11-15T07:12:59.956Z,53.97
2022-11-15T07:15:30.164Z,49.90
2022-11-15T07:18:03.695Z,48.30
2022-11-15T07:20:33.589Z,52.15
2022-11-15T07:23:06.411Z,54.55
2022-11-15T07:25:37.178Z,59.08
2022-11-15T07:28:07.665Z,53.90
2022-11-15T07:30:41.241Z,55.78
2022-11-15T07:33:13.856Z,57.65
2022-11-15T07:35:45.508Z,57.53
2022-11-15T07:38:17.436Z,52.60
2022-11-15T07:40:47.526Z,51.20
2022-11-15T07:45:48.993Z,52.47
2022-11-15T07:48:18.910Z,48.20
2022-11-15T07:50:48.809Z,51.75
2022-11-15T07:53:19.539Z,50.25
2022-11-15T07:55:49.624Z,45.97
2022-11-15T07:58:23.113Z,43.75
2022-11-15T08:00:53.148Z,41.45
2022-11-15T08:03:23.233Z,40.50
2022-11-15T08:08:25.027Z,36.70
2022-11-15T08:10:55.375Z,39.83
2022-11-15T08:13:25.456Z,37.38
2022-11-15T08:18:27.990Z,39.67
2022-11-15T08:21:03.545Z,39.33
2022-11-15T08:23:36.396Z,39.25
2022-11-15T08:26:07.828Z,37.00
2022-11-15T08:28:37.967Z,41.40
2022-11-15T08:33:38.610Z,41.95
2022-11-15T08:36:08.749Z,42.28
2022-11-15T08:41:10.239Z,41.13
2022-11-15T08:43:40.638Z,40.28
2022-11-15T08:46:16.422Z,42.45
2022-11-15T08:48:46.694Z,39.40
2022-11-15T08:51:17.403Z,41.15
2022-11-15T08:53:47.980Z,39.50
2022-11-15T08:56:19.231Z,38.63
2022-11-15T08:58:49.992Z,38.60
2022-11-15T09:01:23.576Z,40.30
2022-11-15T09:03:54.233Z,40.22
2022-11-15T09:06:24.793Z,39.53
2022-11-15T09:08:55.537Z,42.80
2022-11-15T09:11:27.075Z,42.22
2022-11-15T09:13:57.717Z,41.60
2022-11-15T09:16:28.366Z,42.55
2022-11-15T09:18:58.743Z,40.53
2022-11-15T09:21:29.220Z,38.70
2022-11-15T09:23:59.869Z,39.70
2022-11-15T09:26:30.613Z,42.63
2022-11-15T09:29:01.067Z,40.60
2022-11-15T09:31:32.786Z,42.88
2022-11-15T09:34:03.214Z,42.80
2022-11-15T09:36:33.766Z,40.78
2022-11-15T09:39:04.213Z,41.85
2022-11-15T09:42:09.110Z,43.25
2022-11-15T09:45:00.487Z,39.33
2022-11-15T09:48:01.159Z,40.60
2022-11-15T09:50:45.459Z,41.70
2022-11-15T09:53:28.675Z,43.65
2022-11-15T09:56:28.244Z,46.28
2022-11-15T09:59:25.514Z,45.10
2022-11-15T10:02:28.840Z,42.60
2022-11-15T10:05:02.368Z,42.45
2022-11-15T10:07:48.435Z,43.30
2022-11-15T10:10:36.613Z,44.63
2022-11-15T10:13:07.824Z,41.35
2022-11-15T10:15:38.706Z,45.53
2022-11-15T10:18:31.643Z,46.38
2022-11-15T10:21:11.156Z,43.95
2022-11-15T10:23:41.494Z,45.40
2022-11-15T10:28:44.223Z,50.03
2022-11-15T10:31:27.328Z,44.25
2022-11-15T10:34:18.291Z,42.83
2022-11-15T10:36:50.803Z,44.30
2022-11-15T10:39:21.300Z,48.47
2022-11-15T10:41:52.665Z,44.95
2022-11-15T10:44:28.159Z,46.53
2022-11-15T10:47:25.596Z,46.72
2022-11-15T10:50:06.476Z,43.95
2022-11-15T10:52:39.649Z,43.28
2022-11-15T10:55:29.005Z,47.85
2022-11-15T10:58:10.144Z,46.40
2022-11-15T11:00:42.591Z,54.13
2022-11-15T11:03:32.437Z,54.67
2022-11-15T11:06:20.475Z,55.20
2022-11-15T11:09:09.089Z,52.72
2022-11-15T11:11:56.018Z,51.28
2022-11-15T11:14:34.926Z,47.28
2022-11-15T11:17:28.403Z,48.40
2022-11-15T11:20:17.670Z,48.78
2022-11-15T11:23:17.017Z,52.22
2022-11-15T11:26:14.621Z,56.42
2022-11-15T11:29:17.251Z,53.72
2022-11-15T11:32:19.542Z,59.15
2022-11-15T11:35:15.270Z,57.60
2022-11-15T11:38:04.606Z,60.45
2022-11-15T11:40:48.404Z,61.78
2022-11-15T11:43:36.382Z,59.42
2022-11-15T11:46:30.868Z,59.75
2022-11-15T11:49:11.969Z,62.15
2022-11-15T11:52:06.918Z,57.72
2022-11-15T11:54:57.625Z,53.97
2022-11-15T11:57:52.096Z,58.50
2022-11-15T12:00:27.622Z,54.30
2022-11-15T12:03:20.131Z,57.03
2022-11-15T12:06:04.268Z,58.42
2022-11-15T12:08:49.832Z,57.90
2022-11-15T12:11:46.513Z,59.45
2022-11-15T12:14:40.022Z,58.65
2022-11-15T12:17:14.778Z,57.22
2022-11-15T12:19:45.956Z,53.80
2022-11-15T12:22:24.342Z,58.42
2022-11-15T12:25:18.077Z,57.92
2022-11-15T12:27:56.262Z,57.88
2022-11-15T12:30:29.405Z,56.88
2022-11-15T12:33:03.979Z,60.05
2022-11-15T12:36:00.804Z,62.25
2022-11-15T12:39:01.619Z,62.22
2022-11-15T12:41:34.102Z,61.28
2022-11-15T12:44:05.824Z,57.90
2022-11-15T12:47:02.988Z,58.33
2022-11-15T12:49:48.575Z,56.78
2022-11-15T12:52:19.729Z,59.03
2022-11-15T12:54:59.967Z,68.47
2022-11-15T12:57:35.573Z,68.82
2022-11-15T13:00:44.896Z,68.38
2022-11-15T13:03:26.451Z,71.95
2022-11-15T13:06:02.417Z,73.50
2022-11-15T13:08:43.617Z,69.15
2022-11-15T13:11:43.733Z,68.78
2022-11-15T13:14:43.757Z,66.82
2022-11-15T13:17:30.486Z,68.30
2022-11-15T13:20:24.775Z,70.80
2022-11-15T13:23:19.101Z,73.20
2022-11-15T13:26:15.902Z,73.68
2022-11-15T13:28:54.969Z,69.93
2022-11-15T13:31:46.074Z,69.10
2022-11-15T13:34:53.248Z,71.90
2022-11-15T13:37:34.912Z,68.25
2022-11-15T13:40:23.778Z,72.80
2022-11-15T13:42:54.427Z,68.90
2022-11-15T13:45:25.295Z,68.53
2022-11-15T13:47:59.832Z,69.95
2022-11-15T13:50:35.760Z,70.40
2022-11-15T13:53:08.824Z,67.55
2022-11-15T13:55:40.301Z,67.53
2022-11-15T13:58:14.623Z,73.40
2022-11-15T14:00:48.495Z,72.05
2022-11-15T14:03:27.782Z,65.47
2022-11-15T14:06:10.798Z,69.03
2022-11-15T14:08:42.002Z,75.25
2022-11-15T14:11:22.479Z,68.68
2022-11-15T14:16:44.653Z,66.13
2022-11-15T14:19:37.278Z,67.93
2022-11-15T14:22:24.704Z,69.35
2022-11-15T14:25:28.299Z,69.00
2022-11-15T14:28:17.534Z,73.80
2022-11-15T14:30:52.937Z,74.75
2022-11-15T14:33:37.903Z,73.43
2022-11-15T14:36:18.925Z,77.88
2022-11-15T14:38:50.410Z,81.55
2022-11-15T14:41:26.223Z,87.53
2022-11-15T14:43:57.611Z,90.10
2022-11-15T14:46:28.039Z,75.78
2022-11-15T14:51:29.416Z,77.95
2022-11-15T14:53:59.915Z,82.55
2022-11-15T14:56:30.505Z,78.88
2022-11-15T14:59:01.522Z,79.30
2022-11-15T15:01:32.054Z,80.70
2022-11-15T15:04:02.558Z,79.72
2022-11-15T15:06:33.846Z,80.78
2022-11-15T15:09:04.206Z,80.30
2022-11-15T15:11:35.741Z,79.10
2022-11-15T15:14:06.213Z,83.30
2022-11-15T15:16:36.572Z,83.78
2022-11-15T15:21:37.755Z,86.20
2022-11-15T15:24:08.621Z,84.22
2022-11-15T15:26:39.745Z,84.13
2022-11-15T15:29:11.913Z,84.38
2022-11-15T15:31:42.504Z,83.85
2022-11-15T15:34:16.853Z,80.25
2022-11-15T15:36:47.710Z,83.10
2022-11-15T15:39:18.590Z,82.75
2022-11-15T15:41:51.284Z,81.85
2022-11-15T15:44:25.166Z,88.00
2022-11-15T15:46:55.771Z,87.95
2022-11-15T15:49:26.171Z,83.18
2022-11-15T15:51:56.608Z,105.95
2022-11-15T15:54:27.099Z,86.85
2022-11-15T15:59:28.701Z,80.15
2022-11-15T16:02:00.572Z,76.45
2022-11-15T16:04:31.691Z,76.43
2022-11-15T16:07:04.450Z,79.50
2022-11-15T16:09:53.804Z,84.38
2022-11-15T16:12:24.404Z,81.90
2022-11-15T16:14:54.931Z,80.85
2022-11-15T16:20:04.891Z,72.68
2022-11-15T16:22:35.367Z,71.13
2022-11-15T16:27:37.886Z,67.45
2022-11-15T16:30:09.146Z,70.88
2022-11-15T16:32:39.584Z,69.18
2022-11-15T16:35:11.514Z,63.00
2022-11-15T16:37:43.777Z,73.50
2022-11-15T16:40:29.785Z,72.28
2022-11-15T16:43:05.001Z,74.05
2022-11-15T16:45:38.588Z,76.20
2022-11-15T16:48:09.155Z,73.47
2022-11-15T16:53:16.483Z,73.25
2022-11-15T16:55:46.897Z,71.28
2022-11-15T17:00:47.369Z,71.87
2022-11-15T17:03:17.751Z,69.32
2022-11-15T17:05:48.112Z,72.50
2022-11-15T17:08:18.915Z,71.97
2022-11-15T17:10:49.313Z,70.22
2022-11-15T17:13:20.746Z,72.68
2022-11-15T17:15:51.124Z,71.60
2022-11-15T17:18:23.397Z,73.78
2022-11-15T17:20:53.796Z,73.80
2022-11-15T17:23:24.279Z,69.47
2022-11-15T17:28:52.045Z,66.53
2022-11-15T17:31:22.560Z,66.88
2022-11-15T17:36:23.354Z,65.10
2022-11-15T17:38:59.251Z,66.65
2022-11-15T17:41:31.879Z,70.18
2022-11-15T17:44:05.080Z,67.70
2022-11-15T17:46:36.220Z,67.22
2022-11-15T17:49:06.634Z,73.65
2022-11-15T17:51:40.278Z,83.93
2022-11-15T17:54:15.306Z,75.32
2022-11-15T17:56:45.923Z,69.80
2022-11-15T18:01:52.297Z,75.07
2022-11-15T18:04:23.206Z,70.80
2022-11-15T18:06:53.744Z,66.72
2022-11-15T18:11:57.258Z,66.93
2022-11-15T18:14:29.282Z,68.57
2022-11-15T18:16:59.934Z,69.50
2022-11-15T18:22:01.483Z,66.53
2022-11-15T18:24:37.062Z,61.70
2022-11-15T18:27:09.083Z,60.10
2022-11-15T18:29:39.950Z,64.32
2022-11-15T18:32:14.841Z,62.40
2022-11-15T18:34:45.337Z,63.47
2022-11-15T18:37:16.665Z,62.15
2022-11-15T18:39:52.532Z,63.38
2022-11-15T18:42:24.509Z,68.05
2022-11-15T18:45:03.572Z,64.07
2022-11-15T18:47:34.083Z,65.60
2022-11-15T18:52:34.856Z,71.18
2022-11-15T18:55:06.040Z,71.43
2022-11-15T18:57:37.028Z,74.20
2022-11-15T19:00:07.894Z,78.28
2022-11-15T19:02:38.417Z,84.57
2022-11-15T19:05:09.278Z,87.45
2022-11-15T19:07:40.283Z,93.32
2022-11-15T19:10:13.079Z,90.68
2022-11-15T19:12:43.512Z,99.65
2022-11-15T19:15:14.200Z,108.65
2022-11-15T19:17:44.565Z,109.40
2022-11-15T19:20:14.968Z,108.95
2022-11-15T19:22:45.409Z,106.30
2022-11-15T19:25:15.784Z,108.50
2022-11-15T19:27:46.140Z,106.43
2022-11-15T19:30:16.727Z,109.85
2022-11-15T19:35:16.798Z,98.20
2022-11-15T19:37:47.086Z,93.68
2022-11-15T19:40:18.042Z,94.90
2022-11-15T19:42:48.352Z,93.78
2022-11-15T19:45:18.675Z,86.75
2022-11-15T19:47:49.057Z,86.85
2022-11-15T19:50:19.838Z,88.85
2022-11-15T19:52:50.130Z,89.60
2022-11-15T19:55:20.509Z,109.25
2022-11-15T19:57:50.843Z,108.35
2022-11-15T20:00:21.868Z,125.47
2022-11-15T20:02:52.188Z,134.73
2022-11-15T20:05:22.521Z,150.93
2022-11-15T20:07:52.977Z,150.82
2022-11-15T20:10:23.244Z,159.23
2022-11-15T20:12:53.611Z,156.00
2022-11-15T20:15:24.001Z,163.23
2022-11-15T20:17:54.456Z,158.13
2022-11-15T20:22:55.207Z,167.13
2022-11-15T20:25:25.541Z,181.98
2022-11-15T20:27:55.885Z,182.52
2022-11-15T20:30:26.401Z,184.88
2022-11-15T20:35:26.740Z,189.90
2022-11-15T20:37:57.146Z,189.93
2022-11-15T20:40:27.463Z,192.85
2022-11-15T20:42:57.940Z,193.43
2022-11-15T20:45:28.260Z,180.38
2022-11-15T20:47:59.987Z,157.85
2022-11-15T20:50:43.767Z,148.48
2022-11-15T20:53:16.135Z,145.77
2022-11-15T20:55:50.135Z,161.40
2022-11-15T20:58:21.079Z,161.65
2022-11-15T21:00:51.518Z,181.70
2022-11-15T21:03:21.869Z,176.32
2022-11-15T21:05:52.234Z,193.43
2022-11-15T21:08:22.619Z,194.85
2022-11-15T21:11:11.912Z,189.40
2022-11-15T21:13:43.051Z,168.43
2022-11-15T21:16:13.380Z,164.18
2022-11-15T21:18:43.748Z,149.30
2022-11-15T21:21:14.068Z,140.70
2022-11-15T21:23:44.467Z,139.00
2022-11-15T21:26:14.790Z,132.13
2022-11-15T21:28:45.406Z,133.93
2022-11-15T21:33:45.750Z,136.52
2022-11-15T21:36:16.070Z,139.25
2022-11-15T21:38:46.381Z,144.23
2022-11-15T21:41:16.704Z,160.68
2022-11-15T21:43:47.066Z,156.48
2022-11-15T21:46:17.938Z,157.80
2022-11-15T21:48:48.274Z,154.68
2022-11-15T21:51:18.641Z,152.13
2022-11-15T21:53:48.911Z,150.13
2022-11-15T21:56:19.475Z,149.75
2022-11-15T22:01:35.007Z,158.20
2022-11-15T22:04:05.347Z,154.57
2022-11-15T22:06:36.564Z,167.27
2022-11-15T22:09:08.650Z,172.13
2022-11-15T22:11:39.409Z,181.57
2022-11-15T22:14:09.761Z,173.90
2022-11-15T22:16:40.115Z,178.75
2022-11-15T22:19:10.432Z,151.23
2022-11-15T22:21:42.166Z,156.43
2022-11-15T22:24:12.758Z,150.48
2022-11-15T22:26:43.203Z,148.50
2022-11-15T22:29:13.515Z,141.65
2022-11-15T22:31:43.849Z,137.43
2022-11-15T22:34:14.178Z,138.65
2022-11-15T22:37:18.116Z,137.25
2022-11-15T22:39:37.807Z,144.02
2022-11-15T22:42:08.355Z,126.80
2022-11-15T22:47:08.396Z,133.00
2022-11-15T22:49:38.846Z,127.50
2022-11-15T22:52:09.229Z,124.25
2022-11-15T22:54:39.902Z,124.85
2022-11-15T22:59:39.933Z,125.93
2022-11-15T23:02:10.380Z,124.53
2022-11-15T23:04:40.775Z,119.57
2022-11-15T23:07:11.181Z,120.93
2022-11-15T23:09:41.604Z,123.13
2022-11-15T23:12:29.163Z,114.63
2022-11-15T23:14:59.966Z,114.60
2022-11-15T23:17:30.304Z,105.50
2022-11-15T23:20:11.108Z,98.00
2022-11-15T23:22:49.963Z,102.80
2022-11-15T23:25:20.413Z,105.13
2022-11-15T23:27:50.762Z,93.90
2022-11-15T23:34:02.558Z,96.13
2022-11-15T23:36:32.127Z,86.68
2022-11-15T23:39:01.501Z,89.75
2022-11-15T23:41:30.919Z,85.57
2022-11-15T23:44:00.407Z,81.57
2022-11-15T23:46:29.811Z,78.63
2022-11-15T23:48:59.503Z,74.95
2022-11-15T23:51:29.195Z,74.07
2022-11-15T23:53:59.050Z,69.82
2022-11-15T23:56:28.978Z,71.72
2022-11-15T23:58:58.489Z,65.70
